Time;durP1;ratioP1;P1;durP2;ratioP2;P2;SDS_P1;SDS_P2;PMS_P1;PMS_P2;Temp;Humidity;BMP_temperature;BMP_pressure;BME280_temperature;BME280_humidity;BME280_pressure;Samples;Min_cycle;Max_cycle;Signal;HPM_P1;HPM_P2
2023/03/13 00:01:11;;;;;;;;;;;;;;;;;;5073480;28;20369;-75
2023/03/13 00:03:36;;;;;;;;;;;;;;;;;;5075183;28;19908;-74
2023/03/13 00:06:02;;;;;;;;;;;;;;;;;;5074997;28;19913;-75
2023/03/13 00:08:29;;;;;;;;;;;;;;;;;;5074594;28;20004;-77
2023/03/13 00:10:54;;;;;;;;;;;;;;;;;;5074981;28;19909;-75
2023/03/13 00:13:20;;;;;;;;;;;;;;;;;;5074875;28;19915;-74
2023/03/13 00:15:46;;;;;;;;;;;;;;;;;;5074915;28;19908;-75
2023/03/13 00:18:12;;;;;;;;;;;;;;;;;;5074362;28;19931;-74
2023/03/13 00:20:38;;;;;;;;;;;;;;;;;;5073493;28;20284;-75
2023/03/13 00:23:04;;;;;;;;;;;;;;;;;;5074611;28;19915;-73
2023/03/13 00:25:30;;;;;;;;;;;;;;;;;;5074584;28;20015;-75
2023/03/13 00:27:56;;;;;;;;;;;;;;;;;;5072847;28;19962;-76
2023/03/13 00:30:22;;;;;;;;;;;;;;;;;;5073276;28;19908;-76
2023/03/13 00:32:48;;;;;;;;;;;;;;;;;;5073240;28;19912;-76
2023/03/13 00:35:14;;;;;;;;;;;;;;;;;;5074655;28;20007;-76
2023/03/13 00:37:40;;;;;;;;;;;;;;;;;;5074019;28;19931;-73
2023/03/13 00:40:07;;;;;;;;;;;;;;;;;;5074164;28;19920;-76
2023/03/13 00:42:32;;;;;;;;;;;;;;;;;;5074366;28;20312;-75
2023/03/13 00:44:58;;;;;;;;;;;;;;;;;;5074253;28;19916;-74
2023/03/13 00:47:24;;;;;;;;;;;;;;;;;;5073951;28;19908;-74
2023/03/13 00:49:50;;;;;;;;;;;;;;;;;;5074179;28;19954;-75
2023/03/13 00:52:16;;;;;;;;;;;;;;;;;;5074137;28;19914;-75
2023/03/13 00:54:42;;;;;;;;;;;;;;;;;;5074209;28;20258;-74
2023/03/13 00:57:08;;;;;;;;;;;;;;;;;;5072378;28;20399;-74
2023/03/13 00:59:34;;;;;;;;;;;;;;;;;;5074031;28;19961;-75
2023/03/13 01:02:00;;;;;;;;;;;;;;;;;;5073883;28;19908;-74
2023/03/13 01:04:26;;;;;;;;;;;;;;;;;;5073892;28;19959;-73
2023/03/13 01:06:52;;;;;;;;;;;;;;;;;;5073727;28;19912;-75
2023/03/13 01:09:18;;;;;;;;;;;;;;;;;;5073836;28;19974;-73
2023/03/13 01:11:44;;;;;;;;;;;;;;;;;;5073688;28;20292;-73
2023/03/13 01:14:10;;;;;;;;;;;;;;;;;;5073183;28;19987;-74
2023/03/13 01:16:36;;;;;;;;;;;;;;;;;;5073770;28;19932;-74
2023/03/13 01:19:02;;;;;;;;;;;;;;;;;;5067009;28;20327;-75
2023/03/13 01:21:28;;;;;;;;;;;;;;;;;;5057215;28;20396;-75
2023/03/13 01:23:54;;;;;;;;;;;;;;;;;;5073449;28;20011;-74
2023/03/13 01:26:20;;;;;;;;;;;;;;;;;;5071697;28;19962;-77
2023/03/13 01:28:46;;;;;;;;;;;;;;;;;;5073401;28;19993;-75
2023/03/13 01:31:12;;;;;;;;;;;;;;;;;;5073526;28;19912;-75
2023/03/13 01:33:38;;;;;;;;;;;;;;;;;;5073513;28;19912;-74
2023/03/13 01:36:03;;;;;;;;;;;;;;;;;;5070944;28;19940;-73
2023/03/13 01:38:29;;;;;;;;;;;;;;;;;;5073318;28;19912;-75
2023/03/13 01:40:55;;;;;;;;;;;;;;;;;;5073246;28;19928;-73
2023/03/13 01:43:21;;;;;;;;;;;;;;;;;;5073454;28;19909;-74
2023/03/13 01:45:47;;;;;;;;;;;;;;;;;;5072778;28;20004;-75
2023/03/13 01:48:13;;;;;;;;;;;;;;;;;;5073308;28;19909;-75
2023/03/13 01:50:39;;;;;;;;;;;;;;;;;;5073368;28;19912;-75
2023/03/13 01:53:05;;;;;;;;;;;;;;;;;;5072954;28;19909;-73
2023/03/13 01:55:31;;;;;;;;;;;;;;;;;;5062552;28;19909;-76
2023/03/13 01:57:57;;;;;;;;;;;;;;;;;;5053111;28;19948;-74
2023/03/13 02:00:23;;;;;;;;;;;;;;;;;;5053270;28;20281;-74
2023/03/13 02:02:49;;;;;;;;;;;;;;;;;;5053205;28;19917;-74
2023/03/13 02:05:14;;;;;;;;;;;;;;;;;;5051297;28;19917;-74
2023/03/13 02:07:40;;;;;;;;;;;;;;;;;;5053118;28;20415;-75
2023/03/13 02:10:06;;;;;;;;;;;;;;;;;;5051860;28;20312;-75
2023/03/13 02:12:32;;;;;;;;;;;;;;;;;;5051818;28;20365;-74
2023/03/13 02:14:58;;;;;;;;;;;;;;;;;;5052805;28;19912;-75
2023/03/13 02:17:24;;;;;;;;;;;;;;;;;;5053085;28;19915;-74
2023/03/13 02:19:53;;;;;;;;;;;;;;;;;;5052966;28;19909;-73
2023/03/13 02:22:19;;;;;;;;;;;;;;;;;;5053031;28;19912;-77
2023/03/13 02:24:45;;;;;;;;;;;;;;;;;;5055042;28;20007;-76
2023/03/13 02:27:11;;;;;;;;;;;;;;;;;;5056898;28;19948;-77
2023/03/13 02:29:36;;;;;;;;;;;;;;;;;;5056920;28;19916;-78
2023/03/13 02:32:02;;;;;;;;;;;;;;;;;;5056857;28;20302;-78
2023/03/13 02:34:28;;;;;;;;;;;;;;;;;;5056659;28;20443;-78
2023/03/13 02:36:54;;;;;;;;;;;;;;;;;;5056748;28;19909;-78
2023/03/13 02:39:20;;;;;;;;;;;;;;;;;;5056520;28;19921;-77
2023/03/13 02:41:46;;;;;;;;;;;;;;;;;;5056650;28;20011;-76
2023/03/13 02:44:12;;;;;;;;;;;;;;;;;;5056647;28;19908;-76
2023/03/13 02:46:38;;;;;;;;;;;;;;;;;;5056045;28;19923;-77
2023/03/13 02:49:04;;;;;;;;;;;;;;;;;;5055282;28;19909;-76
2023/03/13 02:51:30;;;;;;;;;;;;;;;;;;5056468;28;19908;-76
2023/03/13 02:53:56;;;;;;;;;;;;;;;;;;5056388;28;20000;-79
2023/03/13 02:56:22;;;;;;;;;;;;;;;;;;5071495;28;19958;-78
2023/03/13 02:58:48;;;;;;;;;;;;;;;;;;5076391;28;20334;-77
2023/03/13 03:01:13;;;;;;;;;;;;;;;;;;5076271;28;20003;-77
2023/03/13 03:03:39;;;;;;;;;;;;;;;;;;5076147;28;19939;-79
2023/03/13 03:06:05;;;;;;;;;;;;;;;;;;5075654;28;19912;-77
2023/03/13 03:08:31;;;;;;;;;;;;;;;;;;5074977;28;20306;-76
2023/03/13 03:10:57;;;;;;;;;;;;;;;;;;5074830;28;19909;-76
2023/03/13 03:13:23;;;;;;;;;;;;;;;;;;5076075;28;19909;-76
2023/03/13 03:15:49;;;;;;;;;;;;;;;;;;5064079;28;19959;-78
2023/03/13 03:18:15;;;;;;;;;;;;;;;;;;5056037;28;19909;-76
2023/03/13 03:20:41;;;;;;;;;;;;;;;;;;5056059;28;20011;-76
2023/03/13 03:23:07;;;;;;;;;;;;;;;;;;5055842;28;19952;-76
2023/03/13 03:25:33;;;;;;;;;;;;;;;;;;5063185;28;20266;-75
2023/03/13 03:27:58;;;;;;;;;;;;;;;;;;5074404;28;20400;-75
2023/03/13 03:30:24;;;;;;;;;;;;;;;;;;5074491;28;19915;-76
2023/03/13 03:32:50;;;;;;;;;;;;;;;;;;5075771;28;19908;-77
2023/03/13 03:35:16;;;;;;;;;;;;;;;;;;5074630;28;19915;-76
2023/03/13 03:37:42;;;;;;;;;;;;;;;;;;5075747;28;19909;-76
2023/03/13 03:40:08;;;;;;;;;;;;;;;;;;5073919;28;19951;-76
2023/03/13 03:42:34;;;;;;;;;;;;;;;;;;5075681;28;19908;-77
2023/03/13 03:45:00;;;;;;;;;;;;;;;;;;5075214;28;20330;-77
2023/03/13 03:47:26;;;;;;;;;;;;;;;;;;5075466;28;20426;-77
2023/03/13 03:49:52;;;;;;;;;;;;;;;;;;5074137;28;19915;-77
2023/03/13 03:52:18;;;;;;;;;;;;;;;;;;5075173;28;19912;-77
2023/03/13 03:54:44;;;;;;;;;;;;;;;;;;5075016;28;19909;-77
2023/03/13 03:57:09;;;;;;;;;;;12.80;99.90;;;;;;5055143;28;20331;-78
2023/03/13 03:59:35;;;;;;;;;;;;;;;;;;5070574;28;20511;-78
2023/03/13 04:02:02;;;;;;;;;;;;;;;;;;5055141;28;19962;-76
2023/03/13 04:04:30;;;;;;;;;;;;;;;;;;5054905;28;19932;-78
2023/03/13 04:06:56;;;;;;;;;;;;;;;;;;5054625;28;19943;-76
2023/03/13 04:09:21;;;;;;;;;;;13.00;99.90;;;;;;5054991;28;19909;-77
2023/03/13 04:11:47;;;;;;;;;;;;;;;;;;5055057;28;19912;-76
2023/03/13 04:14:13;;;;;;;;;;;;;;;;;;5054949;28;20407;-77
2023/03/13 04:16:39;;;;;;;;;;;;;;;;;;5054514;28;19974;-77
2023/03/13 04:19:06;;;;;;;;;;;;;;;;;;5054893;28;20262;-78
2023/03/13 04:21:32;;;;;;;;;;;;;;;;;;5053485;28;19909;-76
2023/03/13 04:23:58;;;;;;;;;;;;;;;;;;5053536;28;19909;-76
2023/03/13 04:26:24;;;;;;;;;;;;;;;;;;5054233;28;20015;-77
2023/03/13 04:28:49;;;;;;;;;;;;;;;;;;5054560;28;19909;-76
2023/03/13 04:31:15;;;;;;;;;;;;;;;;;;5054600;28;19916;-77
2023/03/13 04:33:41;;;;;;;;;;;;;;;;;;5054600;28;19909;-76
2023/03/13 04:36:07;;;;;;;;;;;;;;;;;;5054181;28;19931;-76
2023/03/13 04:38:33;;;;;;;;;;;;;;;;;;5052904;28;20331;-76
2023/03/13 04:40:59;;;;;;;;;;;;;;;;;;5052957;28;19917;-79
2023/03/13 04:43:25;;;;;;;;;;;;;;;;;;5054394;28;19940;-77
2023/03/13 04:45:53;;;;;;;;;;;;;;;;;;5060677;28;19912;-76
2023/03/13 04:48:19;;;;;;;;;;;;;;;;;;5073237;28;19908;-76
2023/03/13 04:50:45;;;;;;;;;;;;;;;;;;5074279;28;19915;-79
2023/03/13 04:53:11;;;;;;;;;;;;;;;;;;5073934;28;19920;-76
2023/03/13 04:55:37;;;;;;;;;;;;;;;;;;5068276;28;19908;-77
2023/03/13 04:58:02;;;;;;;;;;;;;;;;;;5054401;28;20419;-76
2023/03/13 05:00:28;;;;;;;;;;;;;;;;;;5052740;28;19909;-76
2023/03/13 05:02:54;;;;;;;;;;;;;;;;;;5054140;28;19947;-76
2023/03/13 05:05:20;;;;;;;;;;;;;;;;;;5053417;28;20423;-76
2023/03/13 05:07:46;;;;;;;;;;;;;;;;;;5052694;28;19916;-75
2023/03/13 05:10:12;;;;;;;;;;;;;;;;;;5053977;28;19909;-76
2023/03/13 05:12:38;;;;;;;;;;;;;;;;;;5053924;28;19936;-76
2023/03/13 05:15:04;;;;;;;;;;;;;;;;;;5053627;28;19931;-76
2023/03/13 05:17:31;;;;;;;;;;;;;;;;;;5052797;28;19920;-76
2023/03/13 05:19:56;;;;;;;;;;;;;;;;;;5053768;28;19948;-76
2023/03/13 05:22:22;;;;;;;;;;;;;;;;;;5053697;28;19909;-77
2023/03/13 05:24:48;;;;;;;;;;;;;;;;;;5052325;28;19920;-75
2023/03/13 05:27:14;;;;;;;;;;;;;;;;;;5051931;28;19909;-74
2023/03/13 05:29:40;;;;;;;;;;;;;;;;;;5053677;28;19966;-74
2023/03/13 05:32:06;;;;;;;;;;;;;;;;;;5053493;28;19916;-75
2023/03/13 05:34:32;;;;;;;;;;;;;;;;;;5053619;28;19909;-74
2023/03/13 05:36:58;;;;;;;;;;;;;;;;;;5068503;28;19908;-75
2023/03/13 05:39:24;;;;;;;;;;;;;;;;;;5073159;28;20292;-76
2023/03/13 05:41:50;;;;;;;;;;;;;;;;;;5073484;28;20361;-75
2023/03/13 05:44:16;;;;;;;;;;;;;;;;;;5073450;28;19951;-76
2023/03/13 05:46:42;;;;;;;;;;;;;;;;;;5058859;28;19963;-76
2023/03/13 05:49:08;;;;;;;;;;;;;;;;;;5052163;28;19932;-76
2023/03/13 05:51:34;;;;;;;;;;;;;;;;;;5053210;28;19909;-75
2023/03/13 05:53:59;;;;;;;;;;;;;;;;;;5053314;28;20301;-76
2023/03/13 05:56:25;;;;;;;;;;;;;;;;;;5053134;28;19931;-76
2023/03/13 05:58:51;;;;;;;;;;;;;;;;;;5052893;28;19909;-75
2023/03/13 06:01:17;;;;;;;;;;;;;;;;;;5053338;28;19909;-76
2023/03/13 06:03:43;;;;;;;;;;;;;;;;;;5053115;28;19966;-76
2023/03/13 06:06:09;;;;;;;;;;;;;;;;;;5051514;28;19967;-76
2023/03/13 06:08:35;;;;;;;;;;;;;;;;;;5053172;28;19908;-76
2023/03/13 06:11:01;;;;;;;;;;;;;;;;;;5053172;28;19909;-76
2023/03/13 06:13:27;;;;;;;;;;;;;;;;;;5053124;28;20370;-75
2023/03/13 06:15:53;;;;;;;;;;;;;;;;;;5052713;28;20008;-75
2023/03/13 06:18:19;;;;;;;;;;;;;;;;;;5053156;28;20086;-75
2023/03/13 06:20:45;;;;;;;;;;;;;;;;;;5053074;28;19908;-74
2023/03/13 06:23:10;;;;;;;;;;;;;;;;;;5053109;28;20285;-73
2023/03/13 06:25:37;;;;;;;;;;;;;;;;;;5052644;28;19948;-75
2023/03/13 06:28:03;;;;;;;;;;;;;;;;;;5052813;28;19908;-74
2023/03/13 06:30:29;;;;;;;;;;;;;;;;;;5051690;28;19915;-75
2023/03/13 06:32:55;;;;;;;;;;;;;;;;;;5052951;28;19999;-75
2023/03/13 06:35:21;;;;;;;;;;;;;;;;;;5053123;28;19975;-75
2023/03/13 06:37:47;;;;;;;;;;;;;;;;;;5071654;28;19931;-75
2023/03/13 06:40:13;;;;;;;;;;;;;;;;;;5072604;28;20380;-75
2023/03/13 06:42:38;;;;;;;;;;;;;;;;;;5072870;28;20364;-75
2023/03/13 06:45:04;;;;;;;;;;;;;;;;;;5072693;28;19966;-74
2023/03/13 06:47:31;;;;;;;;;;;;;;;;;;5053772;28;19913;-75
2023/03/13 06:49:57;;;;;;;;;;;;;;;;;;5052644;28;19909;-75
2023/03/13 06:52:23;;;;;;;;;;;;;;;;;;5052701;28;19908;-75
2023/03/13 06:54:49;;;;;;;;;;;;;;;;;;5052463;28;19916;-74
2023/03/13 06:57:14;;;;;;;;;;;;;;;;;;5051043;28;20277;-75
2023/03/13 06:59:40;;;;;;;;;;;;;;;;;;5052708;28;19920;-75
2023/03/13 07:02:06;;;;;;;;;;;;;;;;;;5052640;28;19956;-75
2023/03/13 07:04:32;;;;;;;;;;;;;;;;;;5052603;28;20392;-76
2023/03/13 07:06:58;;;;;;;;;;;;;;;;;;5052248;28;19916;-77
2023/03/13 07:09:24;;;;;;;;;;;;;;;;;;5052629;28;19909;-75
2023/03/13 07:11:50;;;;;;;;;;;;;;;;;;5054797;28;19920;-74
2023/03/13 07:14:16;;;;;;;;;;;;;;;;;;5054709;28;19916;-75
2023/03/13 07:16:42;;;;;;;;;;;;;;;;;;5055781;28;19916;-74
2023/03/13 07:19:08;;;;;;;;;;;;;;;;;;5055906;28;19909;-73
2023/03/13 07:21:34;;;;;;;;;;;;;;;;;;5056049;28;19913;-76
2023/03/13 07:24:00;;;;;;;;;;;;;;;;;;5055939;28;19909;-74
2023/03/13 07:26:26;;;;;;;;;;;;;;;;;;5055462;28;20019;-76
2023/03/13 07:28:52;;;;;;;;;;;;;;;;;;5055613;28;20502;-76
2023/03/13 07:31:18;;;;;;;;;;;;;;;;;;5055758;28;20342;-73
2023/03/13 07:33:44;;;;;;;;;;;;;;;;;;5055816;28;20274;-75
2023/03/13 07:36:09;;;;;;;;;;;;;;;;;;5059959;28;19957;-75
2023/03/13 07:38:35;;;;;;;;;;;;;;;;;;5075538;28;19943;-75
2023/03/13 07:41:01;;;;;;;;;;;;;;;;;;5075652;28;20334;-75
2023/03/13 07:43:28;;;;;;;;;;;;;;;;;;5075572;28;20391;-74
2023/03/13 07:45:54;;;;;;;;;;;;;;;;;;5073837;28;20007;-76
2023/03/13 07:48:20;;;;;;;;;;;;;;;;;;5075453;28;20415;-75
2023/03/13 07:50:46;;;;;;;;;;;;;;;;;;5075476;28;19909;-75
2023/03/13 07:53:12;;;;;;;;;;;;;;;;;;5075034;28;19925;-74
2023/03/13 07:55:38;;;;;;;;;;;;;;;;;;5075324;28;19919;-76
2023/03/13 07:58:04;;;;;;;;;;;;;;;;;;5075039;28;19995;-75
2023/03/13 08:00:29;;;;;;;;;;;;;;;;;;5073966;28;19908;-75
2023/03/13 08:02:55;;;;;;;;;;;;;;;;;;5075257;28;19915;-75
2023/03/13 08:05:21;;;;;;;;;;;;;;;;;;5074802;28;19912;-74
2023/03/13 08:07:47;;;;;;;;;;;;;;;;;;5073212;28;19912;-74
2023/03/13 08:10:13;;;;;;;;;;;;;;;;;;5075207;28;19908;-76
2023/03/13 08:12:39;;;;;;;;;;;;;;;;;;5075032;28;19999;-75
2023/03/13 08:15:05;;;;;;;;;;;;;;;;;;5074975;28;20392;-74
2023/03/13 08:17:31;;;;;;;;;;;;;;;;;;5074364;28;19919;-74
2023/03/13 08:19:57;;;;;;;;;;;;;;;;;;5074924;28;19915;-75
2023/03/13 08:22:23;;;;;;;;;;;;;;;;;;5074465;28;19908;-74
2023/03/13 08:24:49;;;;;;;;;;;;;;;;;;5073505;28;19915;-74
2023/03/13 08:27:15;;;;;;;;;;;;;;;;;;5074297;28;20021;-75
2023/03/13 08:29:41;;;;;;;;;;;;;;;;;;5074704;28;20265;-75
2023/03/13 08:32:07;;;;;;;;;;;;;;;;;;5074684;28;19909;-75
2023/03/13 08:34:34;;;;;;;;;;;;;;;;;;5074563;28;19908;-75
2023/03/13 08:36:59;;;;;;;;;;;;;;;;;;5074215;28;20284;-75
2023/03/13 08:39:25;;;;;;;;;;;;;;;;;;5074139;28;20011;-75
2023/03/13 08:41:52;;;;;;;;;;;;;;;;;;5074585;28;19909;-74
2023/03/13 08:44:18;;;;;;;;;;;;;;;;;;5073052;28;19915;-75
2023/03/13 08:46:44;;;;;;;;;;;;;;;;;;5073878;28;19991;-74
2023/03/13 08:49:11;;;;;;;;;;;;;;;;;;5074603;28;20284;-74
2023/03/13 08:51:37;;;;;;;;;;;;;;;;;;5072901;28;19982;-74
2023/03/13 08:54:02;;;;;;;;;;;;;;;;;;5074316;28;19908;-74
2023/03/13 08:56:31;;;;;;;;;;;;;;;;;;5073806;28;19963;-74
2023/03/13 08:58:58;;;;;;;;;;;;;;;;;;5074274;28;20326;-74
2023/03/13 09:01:24;;;;;;;;;;;;;;;;;;5074059;28;19916;-74
2023/03/13 09:03:50;;;;;;;;;;;;;;;;;;5073973;28;19909;-75
2023/03/13 09:06:16;;;;;;;;;;;;;;;;;;5073615;28;19912;-74
2023/03/13 09:08:42;;;;;;;;;;;;;;;;;;5073860;28;19917;-75
2023/03/13 09:11:08;;;;;;;;;;;;;;;;;;5073998;28;19908;-74
2023/03/13 09:13:34;;;;;;;;;;;;;;;;;;5073772;28;19908;-74
2023/03/13 09:16:00;;;;;;;;;;;;;;;;;;5073615;28;19944;-75
2023/03/13 09:18:25;;;;;;;;;;;;;;;;;;5072368;28;19908;-74
2023/03/13 09:20:51;;;;;;;;;;;;;;;;;;5073728;28;19915;-74
2023/03/13 09:23:17;;;;;;;;;;;;;;;;;;5073759;28;19954;-76
2023/03/13 09:25:43;;;;;;;;;;;;;;;;;;5073540;28;19912;-76
2023/03/13 09:28:09;;;;;;;;;;;;;;;;;;5072998;28;19965;-78
2023/03/13 09:30:35;;;;;;;;;;;;;;;;;;5072342;28;19908;-75
2023/03/13 09:33:01;;;;;;;;;;;;;;;;;;5073167;28;19915;-75
2023/03/13 09:35:27;;;;;;;;;;;;;;;;;;5073269;28;19908;-76
2023/03/13 09:37:53;;;;;;;;;;;;;;;;;;5071698;28;19908;-75
2023/03/13 09:40:19;;;;;;;;;;;;;;;;;;5073112;28;20376;-76
2023/03/13 09:42:45;;;;;;;;;;;;;;;;;;5073352;28;19948;-76
2023/03/13 09:45:11;;;;;;;;;;;;;;;;;;5073370;28;19917;-76
2023/03/13 09:47:37;;;;;;;;;;;;;;;;;;5072900;28;19962;-76
2023/03/13 09:50:02;;;;;;;;;;;;;;;;;;5073369;28;19912;-76
2023/03/13 09:52:28;;;;;;;;;;;;;;;;;;5073200;28;19908;-75
2023/03/13 09:54:54;;;;;;;;;;;;;;;;;;5073255;28;19909;-76
2023/03/13 09:57:20;;;;;;;;;;;;;;;;;;5072938;28;19973;-75
2023/03/13 09:59:47;;;;;;;;;;;;;;;;;;5073250;28;20338;-76
2023/03/13 10:02:13;;;;;;;;;;;;;;;;;;5073431;28;19908;-76
2023/03/13 10:04:38;;;;;;;;;;;;;;;;;;5071667;28;20050;-75
2023/03/13 10:07:04;;;;;;;;;;;;;;;;;;5072890;28;19931;-77
2023/03/13 10:09:30;;;;;;;;;;;;;;;;;;5073192;28;20376;-77
2023/03/13 10:11:58;;;;;;;;;;;;;;;;;;5073123;28;19915;-77
2023/03/13 10:14:24;;;;;;;;;;;;;;;;;;5073270;28;19991;-75
2023/03/13 10:16:50;;;;;;;;;;;;;;;;;;5072639;28;19955;-77
2023/03/13 10:19:16;;;;;;;;;;;;;;;;;;5073150;28;19909;-75
2023/03/13 10:21:42;;;;;;;;;;;;;;;;;;5073071;28;19916;-75
2023/03/13 10:24:08;;;;;;;;;;;;;;;;;;5073098;28;19908;-73
2023/03/13 10:26:34;;;;;;;;;;;;;;;;;;5072641;28;19963;-73
2023/03/13 10:29:00;;;;;;;;;;;;;;;;;;5072749;28;19909;-76
2023/03/13 10:31:26;;;;;;;;;;;;;;;;;;5073047;28;19909;-74
2023/03/13 10:33:52;;;;;;;;;;;;;;;;;;5072888;28;19915;-73
2023/03/13 10:36:18;;;;;;;;;;;;;;;;;;5072868;28;20007;-73
2023/03/13 10:38:44;;;;;;;;;;;;;;;;;;5072661;28;19919;-74
2023/03/13 10:41:10;;;;;;;;;;;;;;;;;;5071425;28;19961;-74
2023/03/13 10:43:36;;;;;;;;;;;;;;;;;;5071656;28;19908;-75
2023/03/13 10:46:02;;;;;;;;;;;;;;;;;;5075498;28;19970;-75
2023/03/13 10:48:28;;;;;;;;;;;;;;;;;;5076136;28;20400;-74
2023/03/13 10:50:56;;;;;;;;;;;;;;;;;;5076527;28;19908;-74
2023/03/13 10:53:22;;;;;;;;;;;;;;;;;;5076199;28;19991;-75
2023/03/13 10:55:48;;;;;;;;;;;;;;;;;;5076516;28;19954;-74
2023/03/13 10:58:14;;;;;;;;;;;;;;;;;;5075840;28;20277;-73
2023/03/13 11:00:40;;;;;;;;;;;;;;;;;;5076356;28;20352;-73
2023/03/13 11:03:06;;;;;;;;;;;;;;;;;;5076302;28;20384;-74
2023/03/13 11:05:32;;;;;;;;;;;;;;;;;;5076171;28;19912;-75
2023/03/13 11:07:58;;;;;;;;;;;;;;;;;;5075752;28;19908;-75
2023/03/13 11:10:24;;;;;;;;;;;;;;;;;;5076248;28;20281;-75
2023/03/13 11:12:53;;;;;;;;;;;;;;;;;;5076131;28;19908;-73
2023/03/13 11:15:19;;;;;;;;;;;;;;;;;;5076045;28;19946;-74
2023/03/13 11:17:44;;;;;;;;;;;;;;;;;;5075644;28;19956;-74
2023/03/13 11:20:10;;;;;;;;;;;;;;;;;;5075957;28;19913;-75
2023/03/13 11:22:36;;;;;;;;;;;;;;;;;;5076101;28;20293;-74
2023/03/13 11:25:02;;;;;;;;;;;;;;;;;;5075838;28;20364;-75
2023/03/13 11:27:28;;;;;;;;;;;;;;;;;;5075525;28;19908;-73
2023/03/13 11:29:54;;;;;;;;;;;;;;;;;;5075809;28;19908;-75
2023/03/13 11:32:20;;;;;;;;;;;;;;;;;;5075805;28;19908;-74
2023/03/13 11:34:46;;;;;;;;;;;;;;;;;;5074317;28;19908;-73
2023/03/13 11:37:12;;;;;;;;;;;;;;;;;;5075322;28;20388;-74
2023/03/13 11:39:38;;;;;;;;;;;;;;;;;;5075607;28;20302;-74
2023/03/13 11:42:04;;;;;;;;;;;;;;;;;;5075571;28;19913;-75
2023/03/13 11:44:30;;;;;;;;;;;;;;;;;;5075591;28;20002;-74
2023/03/13 11:46:56;;;;;;;;;;;;;;;;;;5075350;28;19955;-74
2023/03/13 11:49:21;;;;;;;;;;;;;;;;;;5075419;28;19912;-73
2023/03/13 11:51:48;;;;;;;;;;;;;;;;;;5075438;28;19912;-75
2023/03/13 11:54:14;;;;;;;;;;;;;;;;;;5075332;28;20364;-73
2023/03/13 11:56:40;;;;;;;;;;;;;;;;;;5074470;28;19959;-75
2023/03/13 11:59:06;;;;;;;;;;;;;;;;;;5075330;28;19908;-74
2023/03/13 12:01:31;;;;;;;;;;;;;;;;;;5075180;28;19957;-75
2023/03/13 12:03:57;;;;;;;;;;;;;;;;;;5075158;28;20003;-76
2023/03/13 12:06:23;;;;;;;;;;;;;;;;;;5075109;28;19909;-75
2023/03/13 12:08:49;;;;;;;;;;;;;;;;;;5074605;28;19910;-74
2023/03/13 12:11:16;;;;;;;;;;;;;;;;;;5075075;28;19915;-75
2023/03/13 12:13:42;;;;;;;;;;;;;;;;;;5075060;28;19909;-74
2023/03/13 12:16:07;;;;;;;;;;;;;;;;;;5074752;28;19920;-75
2023/03/13 12:18:33;;;;;;;;;;;;;;;;;;5074342;28;19954;-74
2023/03/13 12:20:59;;;;;;;;;;;;;;;;;;5074965;28;19909;-74
2023/03/13 12:23:26;;;;;;;;;;;;;;;;;;5075024;28;19913;-75
2023/03/13 12:25:52;;;;;;;;;;;;;;;;;;5073522;28;19916;-73
2023/03/13 12:28:18;;;;;;;;;;;;;;;;;;5074285;28;19909;-76
2023/03/13 12:30:44;;;;;;;;;;;;;;;;;;5074694;28;19916;-73
2023/03/13 12:33:10;;;;;;;;;;;;;;;;;;5074700;28;20003;-75
2023/03/13 12:35:36;;;;;;;;;;;;;;;;;;5074489;28;19913;-74
2023/03/13 12:38:16;;;;;;;;;;;26.50;1.00;;;;;;5064024;28;20327;-74
2023/03/13 12:41:00;;;;;;;;;;;26.50;1.00;;;;;;5053959;28;19921;-75
2023/03/13 12:43:29;;;;;;;;;;;28.50;1.00;;;;;;5054389;28;20003;-73
2023/03/13 12:45:58;;;;;;;;;;;28.90;1.00;;;;;;5054479;28;19958;-72
2023/03/13 12:48:27;;;;;;;;;;;25.00;1.00;;;;;;5053866;28;19962;-74
2023/03/13 12:51:11;;;;;;;;;;;26.60;1.00;;;;;;5052937;28;20265;-74
2023/03/13 12:53:55;;;;;;;;;;;28.80;1.00;;;;;;5054364;28;19909;-74
2023/03/13 12:56:20;;;;;;;;;;;28.50;1.00;;;;;;5054082;28;19952;-74
2023/03/13 12:58:48;;;;;;;;;;;;;;;;;;5052319;28;19951;-74
2023/03/13 13:01:14;;;;;;;;;;;;;;;;;;5054035;28;19996;-74
2023/03/13 13:03:39;;;;;;;;;;;;;;;;;;5052641;28;19948;-73
2023/03/13 13:06:05;;;;;;;;;;;;;;;;;;5054204;28;20293;-76
2023/03/13 13:08:39;;;;;;;;;;;23.60;1.00;;;;;;5065980;28;19909;-75
2023/03/13 13:11:23;;;;;;;;;;;22.90;1.00;;;;;;5073985;28;19954;-75
2023/03/13 13:13:49;;;;;;;;;;;23.40;1.00;;;;;;5072577;28;19908;-75
2023/03/13 13:16:18;;;;;;;;;;;22.10;1.00;;;;;;5073636;28;19962;-76
2023/03/13 13:18:44;;;;;;;;;;;23.20;1.00;;;;;;5073302;28;19912;-76
2023/03/13 13:21:16;;;;;;;;;;;22.80;1.00;;;;;;5073950;28;19908;-76
2023/03/13 13:23:45;;;;;;;;;;;24.60;1.00;;;;;;5072712;28;19962;-74
2023/03/13 13:26:11;;;;;;;;;;;;;;;;;;5072084;28;19912;-72
2023/03/13 13:28:37;;;;;;;;;;;;;;;;;;5059483;28;19913;-73
2023/03/13 13:31:03;;;;;;;;;;;;;;;;;;5053883;28;20262;-74
2023/03/13 13:33:29;;;;;;;;;;;;;;;;;;5053572;28;20366;-76
2023/03/13 13:35:55;;;;;;;;;;;;;;;;;;5053425;28;19920;-75
2023/03/13 13:38:22;;;;;;;;;;;;;;;;;;5053129;28;19913;-75
2023/03/13 13:40:48;;;;;;;;;;;;;;;;;;5053023;28;19972;-74
2023/03/13 13:43:14;;;;;;;;;;;;;;;;;;5053512;28;19909;-74
2023/03/13 13:45:39;;;;;;;;;;;;;;;;;;5053324;28;20324;-76
2023/03/13 13:48:05;;;;;;;;;;;;;;;;;;5053002;28;20377;-74
2023/03/13 13:50:31;;;;;;;;;;;;;;;;;;5053375;28;19913;-75
2023/03/13 13:52:59;;;;;;;;;;;;;;;;;;5053014;28;20004;-75
2023/03/13 13:55:25;;;;;;;;;;;;;;;;;;5053232;28;20365;-74
2023/03/13 13:57:51;;;;;;;;;;;;;;;;;;5052863;28;19962;-74
2023/03/13 14:00:18;;;;;;;;;;;;;;;;;;5053389;28;20387;-75
2023/03/13 14:02:44;;;;;;;;;;;;;;;;;;5053281;28;19909;-77
2023/03/13 14:05:10;;;;;;;;;;;;;;;;;;5052908;28;20372;-75
2023/03/13 14:07:36;;;;;;;;;;;;;;;;;;5052887;28;19909;-74
2023/03/13 14:10:02;;;;;;;;;;;;;;;;;;5053155;28;19916;-75
2023/03/13 14:12:28;;;;;;;;;;;;;;;;;;5053275;28;19908;-76
2023/03/13 14:14:53;;;;;;;;;;;;;;;;;;5053242;28;19909;-75
2023/03/13 14:17:19;;;;;;;;;;;;;;;;;;5052511;28;19932;-75
2023/03/13 14:19:45;;;;;;;;;;;;;;;;;;5053791;28;19908;-76
2023/03/13 14:22:13;;;;;;;;;;;;;;;;;;5057110;28;19912;-74
2023/03/13 14:24:39;;;;;;;;;;;;;;;;;;5055838;28;20278;-73
2023/03/13 14:27:05;;;;;;;;;;;;;;;;;;5057025;28;20432;-73
2023/03/13 14:29:31;;;;;;;;;;;;;;;;;;5056520;28;19996;-73
2023/03/13 14:31:57;;;;;;;;;;;;;;;;;;5056859;28;19958;-73
2023/03/13 14:34:22;;;;;;;;;;;;;;;;;;5057047;28;19908;-72
2023/03/13 14:36:49;;;;;;;;;;;;;;;;;;5056769;28;19913;-72
2023/03/13 14:39:40;;;;;;;;;;;21.90;1.00;;;;;;5056177;28;19921;-75
2023/03/13 14:42:10;;;;;;;;;;;23.40;1.00;;;;;;5056383;28;19916;-74
2023/03/13 14:44:37;;;;;;;;;;;21.80;1.00;;;;;;5072075;28;19909;-74
2023/03/13 14:47:04;;;;;;;;;;;21.60;1.00;;;;;;5056613;28;19916;-73
2023/03/13 14:49:33;;;;;;;;;;;;;;;;;;5056146;28;20333;-73
2023/03/13 14:52:00;;;;;;;;;;;;;;;;;;5056388;28;19909;-74
2023/03/13 14:54:26;;;;;;;;;;;;;;;;;;5056555;28;20325;-75
2023/03/13 14:56:52;;;;;;;;;;;;;;;;;;5056391;28;20046;-75
2023/03/13 14:59:18;;;;;;;;;;;;;;;;;;5055925;28;19908;-75
2023/03/13 15:01:44;;;;;;;;;;;;;;;;;;5056428;28;19908;-75
2023/03/13 15:04:10;;;;;;;;;;;;;;;;;;5056349;28;19908;-77
2023/03/13 15:06:36;;;;;;;;;;;;;;;;;;5056357;28;19948;-74
2023/03/13 15:09:02;;;;;;;;;;;;;;;;;;5055805;28;19920;-75
2023/03/13 15:11:28;;;;;;;;;;;;;;;;;;5056236;28;19908;-76
2023/03/13 15:13:54;;;;;;;;;;;;;;;;;;5054870;28;20388;-75
2023/03/13 15:16:20;;;;;;;;;;;;;;;;;;5055844;28;19962;-75
2023/03/13 15:18:46;;;;;;;;;;;;;;;;;;5055754;28;19999;-75
2023/03/13 15:21:12;;;;;;;;;;;;;;;;;;5055917;28;20365;-73
2023/03/13 15:23:38;;;;;;;;;;;;;;;;;;5056016;28;19920;-74
2023/03/13 15:26:04;;;;;;;;;;;;;;;;;;5055913;28;19909;-76
2023/03/13 15:28:30;;;;;;;;;;;;;;;;;;5054108;28;19916;-76
2023/03/13 15:30:56;;;;;;;;;;;;;;;;;;5055347;28;19931;-74
2023/03/13 15:33:22;;;;;;;;;;;;;;;;;;5055276;28;20003;-75
2023/03/13 15:35:48;;;;;;;;;;;;;;;;;;5055787;28;19952;-76
2023/03/13 15:38:14;;;;;;;;;;;;;;;;;;5053984;28;19909;-77
2023/03/13 15:40:40;;;;;;;;;;;;;;;;;;5054960;28;19927;-77
2023/03/13 15:43:06;;;;;;;;;;;;;;;;;;5055389;28;19947;-77
2023/03/13 15:45:32;;;;;;;;;;;;;;;;;;5055591;28;19955;-77
2023/03/13 15:47:57;;;;;;;;;;;;;;;;;;5055181;28;19916;-76
2023/03/13 15:50:28;;;;;;;;;;;;;;;;;;5055550;28;19909;-75
2023/03/13 15:52:54;;;;;;;;;;;;;;;;;;5053954;28;20304;-75
2023/03/13 15:55:20;;;;;;;;;;;;;;;;;;5055558;28;19913;-76
2023/03/13 15:57:46;;;;;;;;;;;;;;;;;;5055253;28;19915;-77
2023/03/13 16:00:12;;;;;;;;;;;;;;;;;;5055351;28;19908;-76
2023/03/13 16:02:38;;;;;;;;;;;;;;;;;;5055330;28;19913;-76
2023/03/13 16:05:04;;;;;;;;;;;;;;;;;;5054975;28;20007;-75
2023/03/13 16:07:30;;;;;;;;;;;;;;;;;;5055193;28;20357;-75
2023/03/13 16:09:55;;;;;;;;;;;;;;;;;;5054705;28;20377;-76
2023/03/13 16:12:21;;;;;;;;;;;;;;;;;;5053778;28;20435;-75
2023/03/13 16:14:47;;;;;;;;;;;;;;;;;;5053853;28;19958;-77
2023/03/13 16:17:13;;;;;;;;;;;;;;;;;;5054544;28;19956;-75
2023/03/13 16:19:39;;;;;;;;;;;;;;;;;;5071094;28;19948;-75
2023/03/13 16:22:05;;;;;;;;;;;;;;;;;;5074907;28;19908;-76
2023/03/13 16:24:31;;;;;;;;;;;;;;;;;;5074789;28;19935;-75
2023/03/13 16:26:57;;;;;;;;;;;;;;;;;;5073441;28;20404;-75
2023/03/13 16:29:24;;;;;;;;;;;;;;;;;;5074155;28;19916;-75